createdAt,value
2019-04-20T00:00:46.411Z,6.60
2019-04-20T00:01:42.795Z,6.70
2019-04-20T00:02:44.020Z,5.20
2019-04-20T00:03:44.763Z,5.40
2019-04-20T00:04:43.132Z,5.90
2019-04-20T00:05:43.327Z,4.90
2019-04-20T00:06:48.024Z,5.10
2019-04-20T00:07:42.125Z,5.10
2019-04-20T00:08:43.117Z,4.80
2019-04-20T00:09:50.233Z,4.50
2019-04-20T00:10:51.371Z,5.30
2019-04-20T00:11:53.279Z,4.30
2019-04-20T00:13:00.982Z,4.80
2019-04-20T00:13:52.005Z,4.30
2019-04-20T00:14:43.741Z,4.60
2019-04-20T00:15:43.048Z,4.80
2019-04-20T00:16:42.517Z,4.40
2019-04-20T00:17:50.814Z,4.70
2019-04-20T00:18:48.252Z,5.00
2019-04-20T00:19:48.661Z,4.80
2019-04-20T00:20:43.842Z,5.70
2019-04-20T00:21:52.038Z,5.50
2019-04-20T00:22:48.672Z,6.90
2019-04-20T00:23:45.354Z,5.70
2019-04-20T00:24:43.898Z,5.30
2019-04-20T00:25:53.138Z,6.20
2019-04-20T00:27:10.592Z,5.40
2019-04-20T00:28:02.981Z,6.20
2019-04-20T00:29:04.391Z,5.10
2019-04-20T00:30:00.331Z,5.20
2019-04-20T00:30:53.129Z,6.10
2019-04-20T00:31:58.291Z,5.30
2019-04-20T00:32:55.807Z,4.70
2019-04-20T00:33:54.958Z,4.70
2019-04-20T00:34:45.425Z,4.90
2019-04-20T00:35:44.319Z,4.80
2019-04-20T00:36:43.473Z,6.70
2019-04-20T00:37:44.568Z,4.80
2019-04-20T00:38:50.942Z,5.10
2019-04-20T00:39:44.776Z,5.30
2019-04-20T00:40:43.616Z,6.20
2019-04-20T00:41:49.859Z,5.10
2019-04-20T00:42:50.071Z,6.00
2019-04-20T00:43:45.233Z,5.20
2019-04-20T00:44:45.810Z,5.60
2019-04-20T00:45:53.786Z,5.20
2019-04-20T00:46:58.536Z,4.80
2019-04-20T00:47:50.952Z,5.20
2019-04-20T00:48:51.847Z,4.60
2019-04-20T00:49:57.998Z,5.60
2019-04-20T00:51:00.958Z,4.70
2019-04-20T00:52:15.649Z,6.60
2019-04-20T00:53:02.167Z,7.40
2019-04-20T00:53:48.062Z,6.20
2019-04-20T00:54:45.313Z,6.20
2019-04-20T00:55:44.471Z,8.10
2019-04-20T00:56:45.440Z,7.50
2019-04-20T00:57:50.008Z,7.50
2019-04-20T00:58:58.141Z,5.60
2019-04-20T01:00:04.954Z,6.70
2019-04-20T01:01:09.842Z,7.40
2019-04-20T01:02:06.394Z,6.80
2019-04-20T01:02:55.570Z,5.90
2019-04-20T01:04:07.108Z,5.50
2019-04-20T01:05:04.024Z,6.50
2019-04-20T01:06:09.748Z,5.50
2019-04-20T01:06:58.950Z,6.40
2019-04-20T01:07:50.495Z,5.40
2019-04-20T01:08:44.877Z,6.00
2019-04-20T01:09:45.441Z,5.00
2019-04-20T01:10:49.087Z,6.70
2019-04-20T01:11:48.121Z,6.10
2019-04-20T01:12:45.815Z,5.10
2019-04-20T01:13:51.948Z,5.30
2019-04-20T01:14:52.321Z,5.30
2019-04-20T01:15:51.645Z,5.00
2019-04-20T01:16:52.938Z,5.00
2019-04-20T01:17:45.284Z,5.20
2019-04-20T01:18:47.132Z,5.60
2019-04-20T01:19:45.394Z,5.40
2019-04-20T01:20:45.404Z,5.20
2019-04-20T01:21:52.555Z,5.10
2019-04-20T01:22:52.258Z,5.00
2019-04-20T01:23:51.227Z,4.90
2019-04-20T01:24:48.255Z,5.10
2019-04-20T01:25:48.314Z,4.70
2019-04-20T01:26:50.641Z,4.60
2019-04-20T01:28:04.579Z,4.70
2019-04-20T01:28:59.116Z,4.60
2019-04-20T01:29:50.931Z,4.70
2019-04-20T01:31:00.039Z,5.30
2019-04-20T01:32:02.330Z,4.90
2019-04-20T01:32:59.932Z,5.40
2019-04-20T01:33:55.027Z,5.20
2019-04-20T01:34:56.459Z,5.90
2019-04-20T01:35:56.643Z,6.50
2019-04-20T01:37:04.491Z,5.80
2019-04-20T01:38:06.913Z,4.50
2019-04-20T01:38:59.869Z,5.70
2019-04-20T01:39:50.828Z,5.30
2019-04-20T01:40:46.484Z,4.90
2019-04-20T01:41:47.570Z,5.10
2019-04-20T01:42:46.747Z,5.10
2019-04-20T01:43:46.467Z,5.80
2019-04-20T01:44:49.135Z,4.90
2019-04-20T01:45:47.635Z,5.30
2019-04-20T01:46:51.940Z,5.20
2019-04-20T01:47:52.347Z,5.20
2019-04-20T01:48:46.691Z,4.70
2019-04-20T01:49:53.945Z,4.90
2019-04-20T01:50:54.842Z,5.70
2019-04-20T01:51:57.744Z,5.00
2019-04-20T01:52:58.272Z,4.60
2019-04-20T01:54:03.616Z,4.80
2019-04-20T01:55:04.837Z,5.20
2019-04-20T01:56:01.385Z,6.10
2019-04-20T01:56:58.895Z,6.40
2019-04-20T01:58:05.098Z,5.50
2019-04-20T01:59:06.079Z,10.50
2019-04-20T01:59:58.095Z,8.50
2019-04-20T02:00:49.553Z,8.10
2019-04-20T02:01:55.185Z,6.80
2019-04-20T02:02:53.050Z,6.50
2019-04-20T02:03:50.800Z,6.40
2019-04-20T02:04:49.261Z,5.70
2019-04-20T02:05:57.589Z,5.80
2019-04-20T02:06:53.214Z,6.10
2019-04-20T02:07:50.454Z,6.40
2019-04-20T02:08:50.875Z,8.90
2019-04-20T02:09:53.545Z,8.70
2019-04-20T02:10:53.693Z,8.70
2019-04-20T02:11:50.843Z,8.40
2019-04-20T02:12:53.022Z,8.90
2019-04-20T02:13:53.349Z,10.40
2019-04-20T02:14:52.451Z,8.90
2019-04-20T02:15:52.712Z,9.80
2019-04-20T02:16:53.053Z,9.40
2019-04-20T02:18:04.227Z,9.10
2019-04-20T02:19:05.262Z,8.80
2019-04-20T02:20:14.405Z,8.20
2019-04-20T02:21:05.176Z,11.40
2019-04-20T02:22:02.512Z,8.20
2019-04-20T02:23:06.511Z,7.90
2019-04-20T02:23:54.705Z,6.90
2019-04-20T02:24:48.964Z,8.00
2019-04-20T02:25:48.375Z,8.30
2019-04-20T02:26:50.094Z,7.80
2019-04-20T02:27:53.184Z,7.70
2019-04-20T02:29:12.261Z,7.50
2019-04-20T02:30:13.485Z,7.40
2019-04-20T02:31:23.071Z,7.30
2019-04-20T02:32:23.380Z,8.30
2019-04-20T02:33:37.902Z,8.10
2019-04-20T02:34:27.105Z,7.90
2019-04-20T02:35:16.000Z,8.10
2019-04-20T02:37:26.082Z,8.80
2019-04-20T02:38:21.769Z,8.10
2019-04-20T02:39:31.424Z,10.00
2019-04-20T02:40:35.247Z,8.10
2019-04-20T02:41:27.569Z,8.50
2019-04-20T02:42:24.231Z,8.60
2019-04-20T02:43:25.379Z,8.30
2019-04-20T02:45:28.970Z,8.60
2019-04-20T02:46:14.934Z,9.20
2019-04-20T02:47:27.676Z,11.30
2019-04-20T02:49:29.990Z,10.20
2019-04-20T02:50:22.435Z,10.50
2019-04-20T02:51:31.463Z,10.10
2019-04-20T02:52:28.669Z,11.40
2019-04-20T02:53:20.317Z,10.60
2019-04-20T02:54:36.212Z,10.90
2019-04-20T02:55:22.855Z,11.10
2019-04-20T02:56:26.512Z,10.60
2019-04-20T02:57:44.154Z,10.90
2019-04-20T02:58:22.913Z,11.30
2019-04-20T02:59:49.696Z,11.40
2019-04-20T03:01:09.735Z,11.80
2019-04-20T03:02:06.248Z,13.10
2019-04-20T03:03:03.184Z,12.40
2019-04-20T03:03:54.868Z,12.80
2019-04-20T03:05:04.036Z,12.40
2019-04-20T03:06:06.337Z,12.70
2019-04-20T03:07:00.979Z,13.40
2019-04-20T03:08:10.026Z,13.80
2019-04-20T03:09:15.145Z,13.60
2019-04-20T03:10:10.836Z,14.80
2019-04-20T03:11:17.752Z,17.10
2019-04-20T03:12:18.265Z,15.30
2019-04-20T03:13:15.960Z,16.30
2019-04-20T03:14:09.519Z,22.40
2019-04-20T03:15:03.254Z,21.60
2019-04-20T03:16:15.471Z,20.60
2019-04-20T03:17:17.657Z,22.00
2019-04-20T03:18:10.434Z,21.70
2019-04-20T03:19:10.890Z,22.50
2019-04-20T03:20:06.163Z,23.40
2019-04-20T03:21:12.765Z,23.80
2019-04-20T03:22:13.740Z,22.10
2019-04-20T03:23:26.146Z,20.40
2019-04-20T03:24:19.306Z,21.40
2019-04-20T03:25:12.384Z,19.60
2019-04-20T03:26:15.083Z,18.70
2019-04-20T03:27:07.926Z,18.70
2019-04-20T03:28:10.836Z,20.50
2019-04-20T03:29:05.745Z,18.00
2019-04-20T03:30:04.514Z,18.20
2019-04-20T03:32:46.310Z,17.80
2019-04-20T03:33:28.661Z,19.10
2019-04-20T03:34:38.297Z,18.60
2019-04-20T03:35:28.106Z,17.20
2019-04-20T03:36:20.043Z,17.30
2019-04-20T03:37:25.067Z,16.90
2019-04-20T03:38:11.740Z,16.90
2019-04-20T03:39:09.492Z,16.90
2019-04-20T03:40:07.113Z,16.90
2019-04-20T03:41:05.136Z,16.60
2019-04-20T03:41:55.149Z,16.80
2019-04-20T03:42:52.704Z,16.40
2019-04-20T03:43:54.130Z,16.70
2019-04-20T03:44:58.719Z,16.40
2019-04-20T03:46:01.081Z,15.60
2019-04-20T03:46:58.001Z,15.80
2019-04-20T03:48:03.189Z,15.60
2019-04-20T03:49:11.392Z,15.70
2019-04-20T03:50:22.416Z,16.20
2019-04-20T03:51:17.041Z,15.70
2019-04-20T03:52:11.158Z,15.30
2019-04-20T03:53:13.942Z,15.70
2019-04-20T03:54:10.709Z,16.00
2019-04-20T03:55:13.977Z,15.90
2019-04-20T03:56:10.035Z,16.00
2019-04-20T03:57:16.976Z,15.90
2019-04-20T03:58:14.055Z,15.10
2019-04-20T03:59:10.379Z,15.50
2019-04-20T04:00:10.155Z,15.50
2019-04-20T04:01:12.648Z,15.20
2019-04-20T04:02:37.480Z,15.70
2019-04-20T04:03:22.811Z,15.60
2019-04-20T04:04:16.910Z,16.00
2019-04-20T04:05:10.923Z,16.20
2019-04-20T04:06:07.759Z,16.30
2019-04-20T04:06:57.735Z,16.10
2019-04-20T04:08:06.186Z,15.40
2019-04-20T04:09:05.751Z,16.20
2019-04-20T04:10:10.917Z,16.20
2019-04-20T04:11:12.455Z,16.30
2019-04-20T04:12:06.623Z,16.40
2019-04-20T04:12:53.141Z,15.30
2019-04-20T04:13:54.538Z,16.10
2019-04-20T04:14:53.679Z,15.90
2019-04-20T04:15:59.219Z,15.10
2019-04-20T04:16:57.495Z,15.60
2019-04-20T04:17:53.259Z,15.70
2019-04-20T04:19:02.827Z,15.00
2019-04-20T04:20:01.698Z,15.20
2019-04-20T04:21:01.408Z,14.80
2019-04-20T04:22:11.565Z,14.50
2019-04-20T04:23:10.274Z,15.50
2019-04-20T04:24:05.835Z,14.50
2019-04-20T04:25:07.980Z,14.80
2019-04-20T04:26:08.501Z,14.30
2019-04-20T04:27:08.183Z,14.60
2019-04-20T04:28:12.925Z,14.60
2019-04-20T04:29:21.407Z,14.50
2019-04-20T04:30:13.381Z,14.50
2019-04-20T04:31:13.379Z,14.80
2019-04-20T04:32:23.144Z,14.20
2019-04-20T04:33:45.797Z,14.10
2019-04-20T04:34:12.451Z,14.40
2019-04-20T04:35:09.296Z,14.70
2019-04-20T04:36:10.418Z,13.90
2019-04-20T04:37:17.976Z,14.00
2019-04-20T04:38:14.305Z,13.60
2019-04-20T04:39:15.491Z,13.90
2019-04-20T04:40:25.271Z,14.20
2019-04-20T04:41:26.829Z,13.90
2019-04-20T04:42:25.117Z,14.30
2019-04-20T04:43:17.014Z,13.30
2019-04-20T04:44:11.214Z,14.50
2019-04-20T04:45:01.650Z,13.80
2019-04-20T04:45:55.497Z,14.10
2019-04-20T04:46:59.496Z,13.20
2019-04-20T04:47:55.622Z,12.90
2019-04-20T04:49:06.878Z,12.70
2019-04-20T04:50:05.047Z,13.90
2019-04-20T04:51:01.247Z,13.60
2019-04-20T04:52:01.099Z,13.40
2019-04-20T04:53:04.552Z,13.40
2019-04-20T04:54:01.802Z,13.00
2019-04-20T04:55:09.556Z,13.50
2019-04-20T04:56:00.450Z,13.40
2019-04-20T04:56:54.958Z,13.20
2019-04-20T04:57:55.797Z,13.90
2019-04-20T04:58:56.172Z,13.10
2019-04-20T04:59:55.325Z,15.00
2019-04-20T05:01:02.007Z,14.00
2019-04-20T05:01:57.085Z,11.80
2019-04-20T05:03:01.092Z,11.70
2019-04-20T05:04:22.760Z,11.10
2019-04-20T05:05:19.376Z,10.20
2019-04-20T05:06:11.754Z,10.70
2019-04-20T05:07:10.494Z,9.70
2019-04-20T05:08:06.322Z,10.90
2019-04-20T05:09:00.193Z,9.70
2019-04-20T05:09:56.922Z,9.20
2019-04-20T05:10:56.197Z,9.20
2019-04-20T05:12:02.782Z,8.20
2019-04-20T05:12:56.676Z,7.90
2019-04-20T05:14:02.254Z,8.60
2019-04-20T05:15:07.078Z,8.70
2019-04-20T05:16:11.057Z,7.90
2019-04-20T05:17:11.462Z,9.00
2019-04-20T05:18:13.325Z,8.80
2019-04-20T05:19:19.052Z,9.90
2019-04-20T05:20:14.220Z,8.80
2019-04-20T05:21:15.697Z,9.50
2019-04-20T05:22:17.947Z,8.70
2019-04-20T05:23:12.980Z,7.90
2019-04-20T05:24:15.340Z,8.60
2019-04-20T05:25:14.184Z,8.10
2019-04-20T05:26:19.661Z,7.90
2019-04-20T05:27:23.065Z,8.00
2019-04-20T05:28:13.021Z,8.80
2019-04-20T05:29:07.935Z,8.20
2019-04-20T05:29:57.018Z,7.90
2019-04-20T05:30:59.816Z,7.80
2019-04-20T05:32:04.430Z,7.60
2019-04-20T05:33:03.329Z,7.30
2019-04-20T05:34:22.996Z,7.50
2019-04-20T05:35:22.576Z,7.30
2019-04-20T05:36:19.312Z,7.20
2019-04-20T05:37:29.802Z,7.40
2019-04-20T05:38:23.090Z,7.10
2019-04-20T05:39:24.272Z,6.90
2019-04-20T05:40:16.302Z,6.60
2019-04-20T05:41:18.528Z,6.80
2019-04-20T05:43:17.927Z,7.00
2019-04-20T05:44:14.273Z,7.80
2019-04-20T05:45:16.685Z,8.20
2019-04-20T05:46:22.114Z,9.10
2019-04-20T05:47:18.434Z,10.70
2019-04-20T05:48:13.049Z,11.20
2019-04-20T05:49:22.018Z,12.70
2019-04-20T05:50:09.780Z,11.30
2019-04-20T05:51:21.234Z,13.40
2019-04-20T05:52:28.923Z,14.00
2019-04-20T05:53:23.341Z,13.60
2019-04-20T05:54:19.229Z,13.90
2019-04-20T05:55:21.036Z,14.40
2019-04-20T05:56:20.351Z,14.20
2019-04-20T05:57:27.475Z,14.90
2019-04-20T05:58:21.898Z,14.60
2019-04-20T05:59:15.015Z,15.20
2019-04-20T06:00:20.958Z,14.60
2019-04-20T06:01:20.198Z,14.30
2019-04-20T06:02:16.006Z,13.80
2019-04-20T06:04:12.835Z,13.90
2019-04-20T06:05:23.919Z,14.40
2019-04-20T06:06:13.871Z,14.00
2019-04-20T06:07:21.491Z,14.10
2019-04-20T06:08:28.073Z,14.00
2019-04-20T06:09:22.733Z,14.60
2019-04-20T06:10:20.396Z,14.40
2019-04-20T06:11:22.807Z,14.00
2019-04-20T06:12:23.865Z,14.60
2019-04-20T06:13:15.944Z,14.80
2019-04-20T06:14:07.786Z,16.20
2019-04-20T06:15:14.518Z,14.50
2019-04-20T06:16:12.856Z,13.90
2019-04-20T06:17:20.969Z,13.90
2019-04-20T06:18:12.086Z,13.40
2019-04-20T06:19:26.287Z,13.80
2019-04-20T06:20:20.301Z,13.20
2019-04-20T06:21:27.752Z,13.10
2019-04-20T06:22:28.569Z,11.20
2019-04-20T06:23:26.272Z,11.00
2019-04-20T06:24:24.920Z,11.60
2019-04-20T06:26:36.976Z,12.10
2019-04-20T06:27:25.487Z,11.50
2019-04-20T06:28:17.361Z,10.70
2019-04-20T06:29:13.683Z,10.20
2019-04-20T06:30:13.684Z,9.50
2019-04-20T06:31:28.226Z,9.60
2019-04-20T06:32:28.843Z,9.60
2019-04-20T06:33:31.331Z,9.80
2019-04-20T06:35:36.934Z,9.40
2019-04-20T06:36:29.226Z,10.00
2019-04-20T06:37:16.337Z,9.50
2019-04-20T06:38:35.287Z,9.90
2019-04-20T06:39:26.309Z,9.50
2019-04-20T06:40:38.738Z,9.60
2019-04-20T06:41:37.994Z,8.90
2019-04-20T06:42:18.023Z,8.80
2019-04-20T06:43:19.845Z,8.10
2019-04-20T06:44:30.311Z,8.90
2019-04-20T06:45:31.423Z,8.60
2019-04-20T06:46:22.718Z,9.10
2019-04-20T06:47:21.157Z,8.90
2019-04-20T06:48:29.335Z,9.10
2019-04-20T06:50:21.390Z,10.10
2019-04-20T06:51:23.357Z,10.40
2019-04-20T06:52:25.570Z,9.80
2019-04-20T06:53:25.643Z,9.70
2019-04-20T06:54:12.369Z,9.80
2019-04-20T06:55:14.062Z,10.60
2019-04-20T06:56:23.494Z,11.70
2019-04-20T06:57:24.042Z,9.80
2019-04-20T06:58:38.169Z,10.20
2019-04-20T06:59:26.492Z,9.90
2019-04-20T07:00:39.668Z,10.50
2019-04-20T07:01:19.073Z,10.50
2019-04-20T07:03:37.515Z,10.90
2019-04-20T07:04:40.343Z,10.70
2019-04-20T07:05:22.338Z,10.90
2019-04-20T07:06:35.576Z,11.60
2019-04-20T07:07:35.793Z,10.80
2019-04-20T07:08:35.105Z,12.10
2019-04-20T07:09:32.257Z,10.60
2019-04-20T07:10:25.251Z,10.80
2019-04-20T07:11:26.626Z,10.10
2019-04-20T07:12:17.228Z,9.80
2019-04-20T07:13:15.419Z,9.40
2019-04-20T07:14:07.804Z,11.80
2019-04-20T07:15:19.851Z,11.40
2019-04-20T07:16:21.316Z,10.80
2019-04-20T07:17:33.357Z,11.30
2019-04-20T07:18:26.431Z,11.40
2019-04-20T07:19:20.198Z,10.50
2019-04-20T07:20:19.577Z,11.10
2019-04-20T07:21:37.330Z,11.90
2019-04-20T07:23:27.735Z,10.90
2019-04-20T07:24:24.926Z,10.60
2019-04-20T07:25:26.735Z,10.90
2019-04-20T07:26:16.884Z,11.00
2019-04-20T07:27:22.879Z,10.80
2019-04-20T07:28:27.781Z,10.30
2019-04-20T07:29:31.948Z,9.80
2019-04-20T07:30:21.630Z,9.60
2019-04-20T07:31:18.145Z,10.10
2019-04-20T07:32:16.523Z,9.30
2019-04-20T07:33:26.747Z,9.10
2019-04-20T07:34:21.469Z,9.30
2019-04-20T07:35:29.041Z,8.60
2019-04-20T07:36:24.486Z,8.70
2019-04-20T07:37:51.420Z,9.70
2019-04-20T07:38:44.646Z,9.80
2019-04-20T07:39:24.587Z,9.40
2019-04-20T07:40:21.652Z,9.60
2019-04-20T07:41:33.371Z,9.10
2019-04-20T07:42:32.855Z,10.20
2019-04-20T07:43:21.365Z,8.40
2019-04-20T07:44:28.076Z,9.10
2019-04-20T07:45:26.083Z,9.20
2019-04-20T07:46:35.256Z,8.90
2019-04-20T07:47:33.047Z,8.90
2019-04-20T07:48:21.263Z,8.80
2019-04-20T07:49:24.482Z,9.20
2019-04-20T07:50:18.658Z,9.20
2019-04-20T07:51:13.462Z,9.40
2019-04-20T07:52:03.935Z,9.60
2019-04-20T07:53:22.935Z,9.30
2019-04-20T07:54:33.163Z,9.40
2019-04-20T07:55:49.560Z,9.10
2019-04-20T07:56:27.023Z,9.40
2019-04-20T07:57:22.560Z,10.40
2019-04-20T07:58:17.192Z,10.10
2019-04-20T07:59:15.498Z,10.40
2019-04-20T08:00:27.799Z,10.50
2019-04-20T08:01:32.786Z,11.30
2019-04-20T08:02:32.162Z,10.90
2019-04-20T08:03:32.037Z,11.40
2019-04-20T08:04:24.491Z,11.70
2019-04-20T08:05:15.518Z,11.50
2019-04-20T08:06:11.565Z,11.40
2019-04-20T08:07:07.214Z,12.90
2019-04-20T08:08:22.728Z,11.10
2019-04-20T08:09:16.055Z,12.20
2019-04-20T08:10:08.852Z,12.10
2019-04-20T08:11:23.257Z,12.00
2019-04-20T08:12:36.411Z,11.80
2019-04-20T08:13:33.353Z,12.30
2019-04-20T08:14:27.221Z,12.30
2019-04-20T08:15:36.712Z,12.60
2019-04-20T08:16:30.985Z,12.00
2019-04-20T08:17:30.907Z,12.30
2019-04-20T08:18:27.175Z,12.50
2019-04-20T08:19:23.377Z,12.10
2019-04-20T08:20:21.723Z,12.40
2019-04-20T08:21:29.818Z,12.20
2019-04-20T08:22:26.607Z,12.00
2019-04-20T08:23:23.382Z,11.80
2019-04-20T08:24:21.530Z,11.80
2019-04-20T08:25:16.220Z,12.60
2019-04-20T08:26:10.849Z,13.90
2019-04-20T08:27:06.553Z,14.10
2019-04-20T08:28:06.463Z,14.30
2019-04-20T08:29:20.519Z,14.80
2019-04-20T08:30:22.853Z,14.30
2019-04-20T08:31:18.231Z,13.50
2019-04-20T08:32:22.899Z,14.50
2019-04-20T08:34:31.230Z,15.80
2019-04-20T08:35:28.812Z,15.80
2019-04-20T08:36:30.025Z,16.50
2019-04-20T08:37:20.802Z,14.90
2019-04-20T08:39:37.896Z,16.50
2019-04-20T08:40:30.007Z,16.50
2019-04-20T08:41:20.674Z,21.20
2019-04-20T08:42:22.069Z,17.60
2019-04-20T08:43:38.187Z,18.40
2019-04-20T08:45:31.669Z,21.90
2019-04-20T08:46:27.846Z,18.90
2019-04-20T08:47:32.275Z,18.10
2019-04-20T08:48:28.692Z,18.20
2019-04-20T08:49:31.019Z,15.50
2019-04-20T08:50:22.507Z,14.40
2019-04-20T08:51:26.057Z,14.90
2019-04-20T08:52:47.328Z,14.80
2019-04-20T08:53:29.303Z,14.30
2019-04-20T08:54:17.005Z,14.10
2019-04-20T08:55:26.646Z,16.10
2019-04-20T08:56:19.709Z,18.60
2019-04-20T08:57:05.351Z,16.40
2019-04-20T08:58:05.365Z,15.50
2019-04-20T08:59:06.755Z,14.70
2019-04-20T09:00:07.085Z,15.50
2019-04-20T09:01:08.594Z,16.20
2019-04-20T09:02:11.753Z,17.10
2019-04-20T09:03:13.019Z,17.00
2019-04-20T09:04:14.436Z,17.80
2019-04-20T09:05:13.502Z,16.30
2019-04-20T09:06:19.406Z,15.90
2019-04-20T09:07:13.499Z,15.50
2019-04-20T09:08:14.377Z,13.10
2019-04-20T09:09:33.067Z,13.30
2019-04-20T09:10:28.217Z,14.10
2019-04-20T09:11:19.727Z,13.20
2019-04-20T09:12:20.938Z,12.70
2019-04-20T09:13:18.616Z,12.50
2019-04-20T09:14:08.701Z,13.00
2019-04-20T09:15:06.142Z,13.10
2019-04-20T09:16:06.680Z,12.90
2019-04-20T09:17:09.384Z,14.10
2019-04-20T09:18:17.843Z,12.50
2019-04-20T09:19:11.317Z,13.20
2019-04-20T09:20:12.608Z,13.50
2019-04-20T09:21:21.514Z,14.00
2019-04-20T09:22:20.899Z,15.10
2019-04-20T09:23:21.339Z,14.80
2019-04-20T09:24:30.268Z,14.40
2019-04-20T09:25:44.439Z,13.90
2019-04-20T09:26:20.203Z,14.50
2019-04-20T09:27:20.523Z,14.10
2019-04-20T09:28:18.901Z,12.60
2019-04-20T09:29:21.859Z,12.70
2019-04-20T09:30:21.400Z,13.20
2019-04-20T09:31:21.476Z,12.90
2019-04-20T09:32:26.885Z,13.00
2019-04-20T09:33:23.683Z,13.10
2019-04-20T09:34:42.783Z,13.70
2019-04-20T09:35:25.442Z,12.80
2019-04-20T09:36:26.238Z,13.10
2019-04-20T09:37:27.894Z,12.30
2019-04-20T09:38:22.186Z,13.60
2019-04-20T09:39:16.442Z,13.40
2019-04-20T09:40:29.235Z,13.50
2019-04-20T09:41:30.513Z,13.00
2019-04-20T09:42:07.226Z,13.70
2019-04-20T09:43:08.679Z,14.20
2019-04-20T09:44:07.322Z,13.30
2019-04-20T09:45:08.292Z,13.40
2019-04-20T09:46:08.875Z,13.30
2019-04-20T09:47:10.051Z,13.00
2019-04-20T09:48:15.733Z,12.80
2019-04-20T09:49:18.760Z,13.80
2019-04-20T09:50:22.517Z,13.60
2019-04-20T09:51:24.793Z,13.90
2019-04-20T09:52:21.252Z,13.40
2019-04-20T09:53:22.255Z,13.70
2019-04-20T09:54:25.803Z,13.60
2019-04-20T09:55:23.295Z,12.80
2019-04-20T09:56:25.598Z,13.60
2019-04-20T09:57:26.763Z,13.20
2019-04-20T09:58:18.111Z,12.70
2019-04-20T09:59:31.578Z,13.10
2019-04-20T10:00:27.710Z,13.40
2019-04-20T10:01:21.638Z,13.20
2019-04-20T10:02:16.953Z,13.00
2019-04-20T10:03:08.689Z,13.80
2019-04-20T10:04:08.215Z,13.40
2019-04-20T10:05:09.428Z,13.10
2019-04-20T10:06:09.622Z,13.50
2019-04-20T10:07:14.239Z,13.20
2019-04-20T10:08:09.981Z,13.30
2019-04-20T10:09:09.616Z,13.60
2019-04-20T10:10:22.669Z,14.00
2019-04-20T10:11:09.655Z,14.40
2019-04-20T10:12:08.569Z,14.80
2019-04-20T10:13:09.171Z,15.20
2019-04-20T10:14:08.637Z,14.20
2019-04-20T10:15:13.840Z,14.60
2019-04-20T10:16:08.725Z,13.70
2019-04-20T10:17:09.677Z,14.60
2019-04-20T10:18:10.049Z,14.70
2019-04-20T10:19:11.764Z,14.90
2019-04-20T10:20:15.023Z,15.20
2019-04-20T10:21:09.672Z,14.90
2019-04-20T10:22:09.017Z,15.30
2019-04-20T10:23:09.012Z,14.50
2019-04-20T10:24:10.521Z,15.00
2019-04-20T10:25:09.128Z,15.10
2019-04-20T10:26:09.148Z,14.60
2019-04-20T10:27:10.437Z,15.60
2019-04-20T10:28:09.500Z,14.80
2019-04-20T10:29:09.952Z,15.30
2019-04-20T10:30:10.414Z,15.10
2019-04-20T10:31:10.579Z,15.80
2019-04-20T10:32:13.723Z,15.90
2019-04-20T10:33:09.895Z,16.20
2019-04-20T10:34:09.634Z,16.30
2019-04-20T10:35:12.189Z,16.50
2019-04-20T10:36:09.878Z,16.40
2019-04-20T10:37:09.701Z,17.00
2019-04-20T10:38:09.743Z,16.30
2019-04-20T10:39:10.885Z,16.50
2019-04-20T10:40:11.363Z,17.00
2019-04-20T10:41:15.392Z,16.90
2019-04-20T10:42:10.148Z,16.80
2019-04-20T10:43:10.298Z,16.50
2019-04-20T10:44:11.037Z,16.40
2019-04-20T10:45:10.875Z,16.80
2019-04-20T10:46:11.096Z,18.80
2019-04-20T10:47:11.290Z,21.50
2019-04-20T10:48:10.919Z,20.50
2019-04-20T10:49:11.404Z,20.70
2019-04-20T10:50:11.368Z,21.00
2019-04-20T10:51:10.689Z,21.00
2019-04-20T10:52:11.596Z,19.90
2019-04-20T10:53:10.506Z,20.20
2019-04-20T10:54:10.540Z,20.20
2019-04-20T10:55:10.607Z,22.10
2019-04-20T10:56:11.649Z,21.30
2019-04-20T10:57:10.719Z,19.20
2019-04-20T10:58:11.485Z,23.10
2019-04-20T10:59:11.834Z,19.10
2019-04-20T11:00:10.855Z,20.20
2019-04-20T11:01:11.540Z,19.20
2019-04-20T11:02:12.102Z,20.00
2019-04-20T11:03:11.002Z,18.50
2019-04-20T11:04:12.450Z,18.00
2019-04-20T11:05:11.119Z,17.20
2019-04-20T11:06:11.210Z,17.40
2019-04-20T11:07:12.507Z,17.00
2019-04-20T11:08:12.650Z,16.40
2019-04-20T11:09:11.318Z,17.40
2019-04-20T11:10:19.879Z,17.70
2019-04-20T11:11:19.387Z,17.10
2019-04-20T11:12:12.457Z,16.90
2019-04-20T11:13:11.761Z,17.30
2019-04-20T11:14:18.989Z,17.30
2019-04-20T11:15:12.490Z,18.20
2019-04-20T11:16:12.617Z,17.10
2019-04-20T11:17:12.210Z,17.00
2019-04-20T11:18:11.821Z,17.70
2019-04-20T11:19:11.840Z,17.40
2019-04-20T11:20:12.951Z,17.60
2019-04-20T11:21:13.239Z,16.40
2019-04-20T11:22:12.570Z,16.20
2019-04-20T11:23:12.078Z,15.70
2019-04-20T11:24:12.299Z,16.40
2019-04-20T11:25:12.545Z,15.40
2019-04-20T11:26:12.222Z,13.30
2019-04-20T11:27:12.292Z,13.60
2019-04-20T11:28:12.431Z,13.90
2019-04-20T11:29:13.746Z,14.30
2019-04-20T11:30:12.435Z,14.10
2019-04-20T11:31:12.604Z,13.30
2019-04-20T11:32:14.189Z,13.00
2019-04-20T11:33:13.955Z,12.60
2019-04-20T11:34:15.001Z,12.70
2019-04-20T11:35:22.645Z,11.70
2019-04-20T11:36:12.991Z,11.80
2019-04-20T11:37:13.060Z,11.80
2019-04-20T11:38:15.167Z,12.10
2019-04-20T11:39:12.921Z,11.40
2019-04-20T11:40:13.021Z,11.10
2019-04-20T11:41:18.905Z,10.90
2019-04-20T11:42:13.985Z,10.90
2019-04-20T11:43:13.586Z,10.40
2019-04-20T11:44:13.747Z,10.70
2019-04-20T11:45:13.270Z,10.80
2019-04-20T11:46:14.513Z,10.40
2019-04-20T11:47:14.612Z,10.00
2019-04-20T11:48:13.716Z,10.10
2019-04-20T11:49:13.487Z,9.60
2019-04-20T11:50:13.736Z,9.60
2019-04-20T11:51:13.821Z,9.70
2019-04-20T11:52:16.502Z,10.00
2019-04-20T11:53:13.745Z,11.00
2019-04-20T11:54:14.589Z,10.10
2019-04-20T11:55:13.818Z,9.60
2019-04-20T11:56:20.214Z,9.50
2019-04-20T11:57:15.334Z,10.00
2019-04-20T11:58:14.201Z,10.40
2019-04-20T11:59:14.772Z,10.20
2019-04-20T12:00:15.078Z,10.10
2019-04-20T12:01:18.640Z,9.70
2019-04-20T12:02:20.097Z,9.80
2019-04-20T12:03:23.725Z,9.30
2019-04-20T12:04:27.116Z,9.40
2019-04-20T12:05:27.333Z,9.70
2019-04-20T12:06:14.967Z,9.30
2019-04-20T12:07:15.087Z,8.00
2019-04-20T12:08:14.541Z,7.70
2019-04-20T12:09:14.921Z,8.10
2019-04-20T12:10:18.915Z,7.30
2019-04-20T12:11:26.411Z,6.90
2019-04-20T12:12:27.721Z,6.60
2019-04-20T12:13:14.849Z,7.70
2019-04-20T12:14:14.894Z,6.60
2019-04-20T12:15:14.913Z,7.40
2019-04-20T12:16:14.979Z,6.80
2019-04-20T12:17:15.588Z,6.90
2019-04-20T12:18:15.725Z,7.00
2019-04-20T12:19:15.145Z,6.60
2019-04-20T12:20:16.638Z,6.20
2019-04-20T12:21:15.299Z,6.00
2019-04-20T12:22:16.014Z,5.90
2019-04-20T12:23:16.026Z,5.60
2019-04-20T12:24:16.408Z,5.30
2019-04-20T12:25:16.082Z,5.00
2019-04-20T12:26:16.117Z,5.40
2019-04-20T12:27:16.663Z,5.20
2019-04-20T12:28:15.790Z,4.70
2019-04-20T12:29:16.169Z,5.90
2019-04-20T12:30:15.732Z,5.10
2019-04-20T12:31:20.449Z,4.90
2019-04-20T12:32:16.717Z,5.10
2019-04-20T12:33:15.932Z,5.30
2019-04-20T12:34:16.199Z,5.40
2019-04-20T12:35:16.183Z,4.70
2019-04-20T12:36:16.430Z,4.70
2019-04-20T12:37:16.169Z,4.40
2019-04-20T12:38:17.112Z,4.70
2019-04-20T12:39:17.274Z,4.30
2019-04-20T12:40:17.363Z,4.90
2019-04-20T12:41:16.386Z,5.60
2019-04-20T12:42:16.979Z,4.20
2019-04-20T12:43:17.355Z,4.20
2019-04-20T12:44:17.523Z,3.80
2019-04-20T12:45:17.690Z,4.00
2019-04-20T12:46:18.914Z,4.20
2019-04-20T12:47:17.467Z,4.20
2019-04-20T12:48:17.607Z,3.90
2019-04-20T12:49:17.976Z,4.00
2019-04-20T12:50:17.347Z,4.10
2019-04-20T12:51:17.543Z,4.10
2019-04-20T12:52:17.026Z,4.30
2019-04-20T12:53:17.165Z,3.80
2019-04-20T12:54:18.503Z,3.70
2019-04-20T12:55:17.210Z,3.50
2019-04-20T12:56:17.226Z,3.60
2019-04-20T12:57:18.483Z,4.50
2019-04-20T12:58:18.431Z,3.40
2019-04-20T12:59:17.882Z,3.90
2019-04-20T13:00:17.493Z,3.20
2019-04-20T13:01:20.423Z,3.20
2019-04-20T13:02:17.613Z,4.10
2019-04-20T13:03:17.617Z,3.80
2019-04-20T13:04:18.520Z,3.30
2019-04-20T13:05:17.742Z,2.70
2019-04-20T13:06:17.817Z,3.10
2019-04-20T13:07:17.882Z,2.90
2019-04-20T13:08:21.710Z,2.90
2019-04-20T13:09:18.740Z,3.00
2019-04-20T13:10:18.039Z,2.80
2019-04-20T13:11:18.425Z,2.80
2019-04-20T13:12:19.334Z,5.20
2019-04-20T13:13:18.528Z,2.80
2019-04-20T13:14:18.285Z,4.80
2019-04-20T13:15:18.350Z,3.00
2019-04-20T13:16:18.514Z,3.10
2019-04-20T13:17:18.463Z,2.70
2019-04-20T13:18:19.075Z,2.70
2019-04-20T13:19:19.301Z,2.80